Time;durP1;ratioP1;P1;durP2;ratioP2;P2;SDS_P1;SDS_P2;PMS_P1;PMS_P2;Temp;Humidity;BMP_temperature;BMP_pressure;BME280_temperature;BME280_humidity;BME280_pressure;Samples;Min_cycle;Max_cycle;Signal;HPM_P1;HPM_P2
2023/12/25 00:00:10;;;;;;;2.45;1.15;;;;;;;10.71;62.47;97651.09;5056710;28;20199;-73
2023/12/25 00:02:37;;;;;;;2.45;1.00;;;;;;;10.75;63.05;97661.25;5105413;28;20291;-74
2023/12/25 00:05:04;;;;;;;1.92;1.10;;;;;;;10.66;62.90;97665.25;5072382;28;20211;-74
2023/12/25 00:07:30;;;;;;;1.33;0.98;;;;;;;10.68;63.09;97665.03;5105109;28;20199;-74
2023/12/25 00:09:57;;;;;;;1.90;1.20;;;;;;;10.74;63.27;97659.59;5070662;28;20207;-74
2023/12/25 00:12:24;;;;;;;3.25;1.10;;;;;;;10.62;63.40;97668.59;5072026;28;20202;-74
2023/12/25 00:14:52;;;;;;;1.02;0.93;;;;;;;10.60;63.82;97668.81;5070981;28;20203;-74
2023/12/25 00:17:20;;;;;;;1.00;0.90;;;;;;;10.61;63.78;97675.03;5072047;28;20207;-74
2023/12/25 00:19:47;;;;;;;2.63;1.13;;;;;;;10.57;63.76;97674.63;5072061;28;20235;-74
2023/12/25 00:22:14;;;;;;;1.50;1.08;;;;;;;10.59;63.57;97669.84;5087648;28;20210;-74
2023/12/25 00:24:40;;;;;;;1.63;1.30;;;;;;;10.61;63.38;97673.16;5072171;28;20203;-74
2023/12/25 00:27:07;;;;;;;1.83;1.50;;;;;;;10.46;63.96;97680.69;5072545;28;20884;-74
2023/12/25 00:29:33;;;;;;;1.80;1.00;;;;;;;10.44;64.42;97677.34;5055775;28;20308;-74
2023/12/25 00:32:00;;;;;;;2.05;1.08;;;;;;;10.44;64.76;97667.34;5071604;28;20212;-74
2023/12/25 00:34:28;;;;;;;1.50;1.08;;;;;;;10.49;64.04;97674.00;5089143;28;20207;-74
2023/12/25 00:36:55;;;;;;;1.23;0.88;;;;;;;10.44;64.56;97666.53;5071528;28;20206;-74
2023/12/25 00:39:21;;;;;;;2.10;1.08;;;;;;;10.50;64.40;97671.09;5053929;28;20206;-74
2023/12/25 00:41:48;;;;;;;0.85;0.70;;;;;;;10.41;64.29;97673.19;5072633;28;20200;-74
2023/12/25 00:44:14;;;;;;;2.22;1.02;;;;;;;10.35;64.67;97675.91;5105689;28;20200;-74
2023/12/25 00:46:41;;;;;;;2.63;1.10;;;;;;;10.24;64.95;97663.03;5054558;28;20216;-74
2023/12/25 00:49:08;;;;;;;2.25;1.20;;;;;;;10.28;64.65;97673.22;5071453;28;20538;-74
2023/12/25 00:51:36;;;;;;;2.47;1.20;;;;;;;10.31;64.05;97664.69;5089532;28;20282;-74
2023/12/25 00:54:03;;;;;;;2.03;0.90;;;;;;;10.39;64.02;97663.66;5054612;28;20541;-74
2023/12/25 00:56:29;;;;;;;4.20;1.20;;;;;;;10.47;63.45;97659.88;5072050;28;20308;-74
2023/12/25 00:58:57;;;;;;;2.13;1.10;;;;;;;10.10;63.84;97627.84;5072442;28;20211;-74
2023/12/25 01:01:23;;;;;;;1.75;1.10;;;;;;;10.32;64.09;97674.47;5073384;28;20198;-74
2023/12/25 01:03:51;;;;;;;2.17;1.05;;;;;;;10.30;63.75;97664.91;5076512;28;20283;-73
2023/12/25 01:06:17;;;;;;;1.80;1.10;;;;;;;10.33;63.78;97667.19;5059118;28;20212;-73
2023/12/25 01:08:45;;;;;;;2.00;1.10;;;;;;;10.38;63.40;97661.97;5094974;28;20199;-73
2023/12/25 01:11:12;;;;;;;1.25;1.08;;;;;;;10.30;63.35;97654.91;5075013;28;20199;-73
2023/12/25 01:13:39;;;;;;;0.80;0.80;;;;;;;10.31;63.32;97653.88;5075305;28;20629;-72
2023/12/25 01:16:06;;;;;;;2.05;1.30;;;;;;;10.31;63.15;97647.63;5074659;28;20202;-73
2023/12/25 01:18:32;;;;;;;0.80;0.80;;;;;;;10.29;63.19;97664.06;5074058;28;20203;-73
2023/12/25 01:20:59;;;;;;;1.25;1.10;;;;;;;10.22;63.43;97665.94;5071655;28;20187;-73
2023/12/25 01:23:25;;;;;;;1.25;1.05;;;;;;;10.30;63.28;97662.19;5081632;28;20199;-73
2023/12/25 01:25:54;;;;;;;2.00;1.10;;;;;;;10.18;63.36;97651.13;5071499;28;20215;-73
2023/12/25 01:28:21;;;;;;;1.10;1.00;;;;;;;10.16;63.53;97642.41;5090817;28;20249;-74
2023/12/25 01:30:47;;;;;;;1.20;0.80;;;;;;;10.20;63.20;97638.25;5087963;28;20203;-74
2023/12/25 01:33:14;;;;;;;2.15;1.00;;;;;;;10.15;63.20;97645.31;5072218;28;20199;-73
2023/12/25 01:35:40;;;;;;;1.85;1.00;;;;;;;10.14;63.35;97658.00;5089026;28;20192;-74
2023/12/25 01:38:07;;;;;;;1.33;0.90;;;;;;;10.13;63.28;97655.50;5072673;28;20222;-74
2023/12/25 01:40:34;;;;;;;1.27;1.05;;;;;;;10.20;63.56;97649.09;5070333;28;20200;-73
2023/12/25 01:43:02;;;;;;;1.45;1.00;;;;;;;10.15;63.46;97653.41;5052967;28;20203;-74
2023/12/25 01:45:28;;;;;;;1.35;0.88;;;;;;;10.15;63.52;97677.75;5070454;28;20250;-74
2023/12/25 01:47:57;;;;;;;2.00;1.00;;;;;;;10.08;63.39;97667.75;5070665;28;20208;-74
2023/12/25 01:50:24;;;;;;;1.35;0.90;;;;;;;10.01;63.38;97655.31;5103533;28;20218;-74
2023/12/25 01:52:53;;;;;;;1.27;0.93;;;;;;;9.96;63.35;97657.81;5071601;28;20202;-74
2023/12/25 01:55:20;;;;;;;1.23;0.90;;;;;;;10.06;63.11;97648.25;5105660;28;20199;-74
2023/12/25 01:57:47;;;;;;;1.50;0.85;;;;;;;10.00;62.80;97654.47;5071170;28;20670;-74
2023/12/25 02:00:16;;;;;;;2.10;1.20;;;;;;;9.94;63.26;97660.72;5088139;28;20661;-73
2023/12/25 02:02:42;;;;;;;2.05;1.00;;;;;;;9.89;63.41;97640.75;5088928;28;20192;-73
2023/12/25 02:05:09;;;;;;;1.67;0.85;;;;;;;9.85;63.58;97659.25;5089447;28;20653;-74
2023/12/25 02:07:38;;;;;;;1.40;0.93;;;;;;;9.84;63.95;97659.44;5088114;28;20282;-73
2023/12/25 02:10:04;;;;;;;1.23;0.80;;;;;;;9.78;63.65;97671.91;5069875;28;20239;-73
2023/12/25 02:12:31;;;;;;;1.50;1.00;;;;;;;9.76;64.32;97666.72;5069134;28;20282;-74
2023/12/25 02:14:58;;;;;;;2.45;1.30;;;;;;;9.75;64.43;97672.31;5053770;28;20206;-73
2023/12/25 02:17:26;;;;;;;1.75;0.90;;;;;;;9.41;65.03;97627.41;5073028;28;20224;-74
2023/12/25 02:19:53;;;;;;;1.80;1.25;;;;;;;9.58;65.24;97681.88;5072397;28;20559;-74
2023/12/25 02:22:19;;;;;;;0.93;0.93;;;;;;;9.58;65.08;97677.28;5073123;28;20203;-73
2023/12/25 02:24:49;;;;;;;1.63;0.98;;;;;;;9.58;64.85;97668.34;5075155;28;20207;-74
2023/12/25 02:27:18;;;;;;;3.17;1.30;;;;;;;9.57;64.51;97693.72;5072594;28;20219;-74
2023/12/25 02:29:44;;;;;;;2.70;0.98;;;;;;;9.55;64.37;97676.88;5057288;28;20212;-74
2023/12/25 02:32:11;;;;;;;1.58;0.80;;;;;;;9.61;64.56;97686.88;5075310;28;20218;-73
2023/12/25 02:34:39;;;;;;;1.33;0.90;;;;;;;9.48;64.87;97668.75;5073934;28;20204;-74
2023/12/25 02:37:06;;;;;;;2.00;0.93;;;;;;;9.48;65.37;97678.72;5073484;28;20664;-73
2023/12/25 02:39:33;;;;;;;1.25;1.00;;;;;;;9.53;65.33;97689.75;5108220;28;20208;-74
2023/12/25 02:41:59;;;;;;;2.05;1.20;;;;;;;9.47;65.62;97680.59;5091551;28;20212;-74
2023/12/25 02:44:28;;;;;;;3.40;0.93;;;;;;;9.52;65.67;97688.09;5091570;28;20192;-74
2023/12/25 02:46:54;;;;;;;1.48;0.90;;;;;;;9.47;66.18;97674.34;5091301;28;20223;-74
2023/12/25 02:49:21;;;;;;;1.90;1.00;;;;;;;9.38;66.40;97673.72;5073714;28;20203;-74
2023/12/25 02:51:48;;;;;;;1.65;1.00;;;;;;;9.53;66.16;97665.44;5073655;28;20286;-73
2023/12/25 02:54:15;;;;;;;2.38;1.02;;;;;;;9.51;66.38;97681.00;5057784;28;20207;-73
2023/12/25 02:56:42;;;;;;;0.90;0.80;;;;;;;9.52;66.20;97671.88;5070926;28;20200;-74
2023/12/25 02:59:08;;;;;;;1.25;1.00;;;;;;;9.57;65.90;97675.63;5049095;28;20570;-74
2023/12/25 03:01:36;;;;;;;1.05;0.93;;;;;;;9.51;65.26;97670.22;5091794;28;20206;-74
2023/12/25 03:04:03;;;;;;;1.58;0.95;;;;;;;9.61;64.56;97654.44;5074526;28;20234;-74
2023/12/25 03:06:30;;;;;;;1.48;1.00;;;;;;;9.67;64.47;97645.53;5073082;28;20208;-74
2023/12/25 03:08:56;;;;;;;2.05;1.00;;;;;;;9.62;64.43;97658.81;5073543;28;20202;-74
2023/12/25 03:11:23;;;;;;;1.17;1.00;;;;;;;9.60;64.59;97647.38;5076177;28;20195;-75
2023/12/25 03:13:49;;;;;;;1.88;0.93;;;;;;;9.56;64.37;97655.06;5079344;28;20233;-74
2023/12/25 03:16:19;;;;;;;2.00;1.00;;;;;;;9.47;64.65;97652.75;5075679;28;20198;-74
2023/12/25 03:18:47;;;;;;;1.02;0.93;;;;;;;9.47;64.47;97639.22;5072388;28;20204;-74
2023/12/25 03:21:13;;;;;;;1.23;1.00;;;;;;;9.56;63.96;97648.81;5072813;28;20262;-74
2023/12/25 03:23:40;;;;;;;1.27;0.80;;;;;;;9.55;63.91;97647.97;5074591;28;20283;-74
2023/12/25 03:26:07;;;;;;;1.55;0.98;;;;;;;9.51;63.66;97656.69;5057432;28;20230;-74
2023/12/25 03:28:35;;;;;;;0.88;0.80;;;;;;;9.48;63.76;97643.59;5090483;28;20200;-73
2023/12/25 03:31:01;;;;;;;0.88;0.80;;;;;;;9.45;63.27;97655.66;5073259;28;20192;-74
2023/12/25 03:33:28;;;;;;;2.28;1.10;;;;;;;9.54;62.82;97643.63;5073280;28;20200;-74
2023/12/25 03:35:56;;;;;;;1.35;0.90;;;;;;;9.43;63.07;97663.94;5071285;28;20208;-74
2023/12/25 03:38:23;;;;;;;2.30;1.00;;;;;;;9.47;62.79;97655.44;5074020;28;20532;-73
2023/12/25 03:40:50;;;;;;;1.35;0.98;;;;;;;9.52;62.77;97647.56;5106243;28;20206;-74
2023/12/25 03:43:16;;;;;;;1.52;1.05;;;;;;;9.51;62.38;97644.03;5075673;28;20200;-73
2023/12/25 03:45:43;;;;;;;1.23;1.00;;;;;;;9.48;62.00;97649.00;5073760;28;20202;-73
2023/12/25 03:48:10;;;;;;;2.17;1.00;;;;;;;9.45;62.53;97644.84;5057044;28;20286;-73
2023/12/25 03:50:36;;;;;;;1.40;0.90;;;;;;;9.48;62.09;97640.91;5072442;28;20216;-74
2023/12/25 03:53:04;;;;;;;1.20;0.90;;;;;;;9.48;61.97;97640.91;5074231;28;20557;-74
2023/12/25 03:55:31;;;;;;;1.92;0.95;;;;;;;9.46;62.10;97642.97;5074134;28;20207;-74
2023/12/25 03:57:57;;;;;;;1.50;1.00;;;;;;;9.47;61.50;97647.34;5089770;28;20278;-73
2023/12/25 04:00:24;;;;;;;1.80;1.10;;;;;;;9.52;61.53;97625.94;5074758;28;20199;-73
2023/12/25 04:02:51;;;;;;;2.03;1.08;;;;;;;9.51;61.37;97649.44;5056674;28;20200;-74
2023/12/25 04:05:18;;;;;;;0.95;0.85;;;;;;;9.53;61.16;97646.53;5072707;28;20200;-74
2023/12/25 04:07:45;;;;;;;1.70;1.00;;;;;;;9.49;61.57;97645.25;5106750;28;20832;-73
2023/12/25 04:10:14;;;;;;;0.95;0.80;;;;;;;9.47;61.65;97647.34;5105365;27;20654;-74
2023/12/25 04:12:41;;;;;;;1.52;1.02;;;;;;;9.49;61.38;97656.06;5091483;28;20561;-74
2023/12/25 04:15:09;;;;;;;0.80;0.80;;;;;;;9.54;61.31;97659.00;5090717;28;20226;-73
2023/12/25 04:17:35;;;;;;;1.23;0.80;;;;;;;9.51;61.67;97659.41;5072676;28;20298;-74
2023/12/25 04:20:02;;;;;;;1.38;0.85;;;;;;;9.49;61.74;97661.47;5087932;28;20202;-74
2023/12/25 04:22:29;;;;;;;1.90;1.00;;;;;;;9.55;61.64;97660.66;5071552;28;20531;-74
2023/12/25 04:24:55;;;;;;;1.30;0.90;;;;;;;9.47;62.07;97663.53;5071615;28;20211;-75
2023/12/25 04:27:23;;;;;;;1.40;1.00;;;;;;;9.43;61.77;97674.75;5104625;28;20222;-74
2023/12/25 04:29:50;;;;;;;0.98;0.70;;;;;;;9.50;61.61;97663.13;5106155;28;20290;-74
2023/12/25 04:32:16;;;;;;;1.25;0.80;;;;;;;9.42;61.23;97666.88;5088845;28;20219;-74
2023/12/25 04:34:43;;;;;;;1.33;0.80;;;;;;;9.46;61.27;97664.56;5090649;28;20372;-73
2023/12/25 04:37:09;;;;;;;1.02;0.90;;;;;;;9.50;61.33;97663.97;5088955;28;20295;-73
2023/12/25 04:39:36;;;;;;;1.25;0.80;;;;;;;9.50;60.97;97682.88;5088671;28;20286;-74
2023/12/25 04:42:02;;;;;;;1.38;0.90;;;;;;;9.52;61.22;97674.56;5072147;28;20261;-74
2023/12/25 04:44:31;;;;;;;0.82;0.75;;;;;;;9.54;61.01;97659.81;5055806;28;20286;-74
2023/12/25 04:46:57;;;;;;;1.30;0.98;;;;;;;9.47;61.33;97663.53;5070456;28;20692;-73
2023/12/25 04:49:24;;;;;;;0.95;0.80;;;;;;;9.50;60.96;97680.19;5072440;28;20680;-74
2023/12/25 04:51:50;;;;;;;1.15;0.70;;;;;;;9.54;61.13;97667.09;5073229;28;20222;-74
2023/12/25 04:54:17;;;;;;;1.30;0.98;;;;;;;9.52;60.88;97661.06;5090678;28;20208;-74
2023/12/25 04:56:44;;;;;;;1.90;1.05;;;;;;;9.40;61.37;97685.16;5072154;28;20195;-73
2023/12/25 04:59:11;;;;;;;1.25;0.98;;;;;;;9.48;61.11;97660.63;5079215;28;20654;-73
2023/12/25 05:01:39;;;;;;;1.33;0.90;;;;;;;9.48;61.03;97665.22;5073424;28;20283;-74
2023/12/25 05:04:06;;;;;;;1.27;0.80;;;;;;;9.38;61.55;97677.25;5072471;28;20211;-73
2023/12/25 05:06:32;;;;;;;1.50;0.75;;;;;;;9.46;61.22;97661.88;5090168;28;20980;-74
2023/12/25 05:08:59;;;;;;;1.55;0.95;;;;;;;9.41;61.45;97671.44;5070056;28;20222;-74
2023/12/25 05:11:26;;;;;;;1.05;1.00;;;;;;;9.28;61.65;97666.00;5105835;28;20192;-73
2023/12/25 05:13:53;;;;;;;1.80;1.00;;;;;;;9.33;62.03;97663.53;5072573;28;20222;-73
2023/12/25 05:16:19;;;;;;;1.70;1.00;;;;;;;9.37;61.47;97658.56;5071153;28;20200;-74
2023/12/25 05:18:47;;;;;;;1.58;1.05;;;;;;;9.35;61.52;97660.63;5093893;28;20222;-72
2023/12/25 05:21:14;;;;;;;0.80;0.80;;;;;;;9.25;61.83;97644.81;5112601;28;20233;-72
2023/12/25 05:23:40;;;;;;;1.10;1.00;;;;;;;9.34;61.81;97657.09;5074606;28;20274;-73
2023/12/25 05:26:07;;;;;;;2.08;1.00;;;;;;;9.36;61.98;97646.09;5055006;28;20204;-73
2023/12/25 05:28:34;;;;;;;0.80;0.75;;;;;;;9.38;62.11;97660.22;5103017;28;20259;-73
2023/12/25 05:31:00;;;;;;;0.98;0.77;;;;;;;9.37;62.06;97662.09;5072928;28;20214;-73
2023/12/25 05:33:27;;;;;;;0.93;0.80;;;;;;;9.34;62.39;97662.50;5088162;28;20700;-73
2023/12/25 05:35:55;;;;;;;0.90;0.80;;;;;;;9.41;62.11;97633.63;5071169;28;20199;-74
2023/12/25 05:38:22;;;;;;;1.10;0.85;;;;;;;9.41;61.93;97651.72;5069795;28;20211;-74
2023/12/25 05:40:49;;;;;;;2.78;0.80;;;;;;;9.47;61.65;97656.28;5072575;28;20264;-73
2023/12/25 05:43:16;;;;;;;1.67;0.90;;;;;;;9.27;61.89;97631.09;5071406;28;20199;-73
2023/12/25 05:45:42;;;;;;;0.98;0.80;;;;;;;9.40;61.48;97653.59;5070873;28;20204;-73
2023/12/25 05:48:09;;;;;;;1.25;0.70;;;;;;;9.35;61.56;97657.94;5070387;28;20223;-73
2023/12/25 05:50:36;;;;;;;1.98;0.95;;;;;;;9.29;61.47;97654.16;5053964;28;20196;-73
2023/12/25 05:53:05;;;;;;;1.00;0.70;;;;;;;9.39;61.55;97667.28;5105423;28;20661;-73
2023/12/25 05:55:32;;;;;;;1.10;0.88;;;;;;;9.42;61.09;97665.00;5103023;28;20203;-74
2023/12/25 05:57:59;;;;;;;1.40;0.80;;;;;;;9.28;61.08;97666.00;5068626;28;20227;-73
2023/12/25 06:00:25;;;;;;;1.30;0.80;;;;;;;9.32;61.03;97667.25;5071232;28;20222;-73
2023/12/25 06:02:51;;;;;;;0.80;0.80;;;;;;;9.28;61.03;97682.22;5071934;28;20210;-73
2023/12/25 06:05:17;;;;;;;0.80;0.80;;;;;;;9.27;61.18;97675.13;5069091;28;20196;-73
2023/12/25 06:07:45;;;;;;;1.20;0.70;;;;;;;9.28;60.94;97684.91;5070412;28;20227;-74
2023/12/25 06:10:14;;;;;;;1.25;0.80;;;;;;;9.33;61.01;97678.91;5071730;28;20214;-73
2023/12/25 06:12:42;;;;;;;0.80;0.80;;;;;;;9.36;60.94;97682.03;5089298;28;20208;-73
2023/12/25 06:15:13;;;;;;;0.90;0.75;;;;;;;9.27;61.21;97696.75;5068702;28;20208;-74
2023/12/25 06:17:40;;;;;;;0.93;0.80;;;;;;;9.27;61.21;97682.41;5068268;28;21123;-73
2023/12/25 06:20:08;;;;;;;1.10;0.80;;;;;;;9.30;61.30;97680.13;5103702;28;20202;-73
2023/12/25 06:22:35;;;;;;;0.80;0.70;;;;;;;9.03;61.43;97646.81;5103389;28;20206;-73
2023/12/25 06:25:03;;;;;;;0.70;0.70;;;;;;;9.13;61.43;97672.59;5053283;28;20212;-73
2023/12/25 06:27:31;;;;;;;1.30;0.98;;;;;;;9.25;61.62;97682.59;5103207;28;20223;-73
2023/12/25 06:29:58;;;;;;;1.23;0.70;;;;;;;9.21;61.79;97692.16;5071678;28;20661;-73
2023/12/25 06:32:24;;;;;;;1.05;0.75;;;;;;;9.14;62.11;97691.28;5046968;28;20204;-73
2023/12/25 06:34:51;;;;;;;0.93;0.90;;;;;;;9.11;62.05;97675.47;5066684;28;20206;-73
2023/12/25 06:37:17;;;;;;;1.98;0.90;;;;;;;9.13;62.04;97677.97;5104343;28;20251;-73
2023/12/25 06:39:44;;;;;;;1.13;0.80;;;;;;;9.09;61.93;97673.00;5069368;28;20203;-73
2023/12/25 06:42:11;;;;;;;1.30;0.80;;;;;;;9.08;61.84;97674.03;5104452;28;20206;-73
2023/12/25 06:44:39;;;;;;;0.80;0.80;;;;;;;9.11;61.89;97675.47;5069997;28;20207;-73
2023/12/25 06:47:06;;;;;;;3.25;1.10;;;;;;;9.18;61.81;97670.94;5068494;28;20253;-73
2023/12/25 06:49:32;;;;;;;1.08;0.80;;;;;;;9.08;61.98;97679.44;5087667;28;20668;-73
2023/12/25 06:52:00;;;;;;;0.80;0.80;;;;;;;9.12;61.78;97682.53;5053415;28;20200;-73
2023/12/25 06:54:26;;;;;;;1.27;0.82;;;;;;;9.10;62.20;97690.00;5069635;28;20192;-73
2023/12/25 06:56:53;;;;;;;0.80;0.80;;;;;;;9.15;61.68;97694.81;5064913;28;20208;-73
2023/12/25 06:59:20;;;;;;;0.80;0.73;;;;;;;9.17;61.43;97690.03;5051348;28;20277;-73
2023/12/25 07:01:48;;;;;;;1.30;0.80;;;;;;;9.16;61.66;97689.22;5065897;28;20208;-76
2023/12/25 07:04:17;;;;;;;1.30;0.80;;;;;;;9.15;61.37;97687.53;5054751;28;20192;-78
2023/12/25 07:06:43;;;;;;;1.10;1.00;;;;;;;9.20;61.05;97695.88;5077935;28;20292;-76
2023/12/25 07:09:14;;;;;;;1.25;0.80;;;;;;;8.99;61.48;97696.84;5074207;28;20195;-77
2023/12/25 07:11:40;;;;;;;1.08;0.98;;;;;;;9.17;61.45;97695.44;5091155;28;20196;-75
2023/12/25 07:14:07;;;;;;;1.20;1.00;;;;;;;9.07;61.53;97695.84;5092617;28;20283;-77
2023/12/25 07:16:35;;;;;;;0.80;0.80;;;;;;;9.12;61.58;97700.59;5072351;28;20207;-76
2023/12/25 07:19:04;;;;;;;0.90;0.82;;;;;;;9.15;60.89;97698.34;5075226;28;20227;-77
2023/12/25 07:21:30;;;;;;;1.50;1.25;;;;;;;9.15;60.59;97692.94;5071655;28;20199;-76
2023/12/25 07:23:58;;;;;;;1.10;1.00;;;;;;;9.13;61.05;97708.50;5091230;28;20200;-77
2023/12/25 07:26:24;;;;;;;2.38;0.90;;;;;;;9.16;60.83;97707.28;5072376;28;20561;-76
2023/12/25 07:28:51;;;;;;;1.30;1.00;;;;;;;9.26;60.36;97705.88;5074761;28;20224;-76
2023/12/25 07:31:20;;;;;;;0.80;0.80;;;;;;;9.24;60.53;97712.50;5068209;28;20645;-77
2023/12/25 07:33:47;;;;;;;1.20;1.10;;;;;;;9.29;60.47;97707.34;5057447;28;20205;-75
2023/12/25 07:36:15;;;;;;;1.25;1.13;;;;;;;9.30;60.10;97723.34;5089546;28;20192;-75
2023/12/25 07:38:42;;;;;;;0.98;0.90;;;;;;;9.28;60.10;97717.31;5073180;28;20200;-77
2023/12/25 07:41:10;;;;;;;0.77;0.77;;;;;;;9.27;60.03;97729.16;5090769;28;20206;-76
2023/12/25 07:43:37;;;;;;;1.85;0.90;;;;;;;9.32;59.67;97731.25;5070199;28;20192;-76
2023/12/25 07:46:06;;;;;;;1.10;1.00;;;;;;;9.41;59.59;97738.16;5089258;28;20307;-75
2023/12/25 07:48:32;;;;;;;1.60;0.88;;;;;;;9.32;59.73;97737.47;5104804;28;20219;-75
2023/12/25 07:51:01;;;;;;;1.63;0.80;;;;;;;9.42;59.05;97737.91;5070946;28;20223;-75
2023/12/25 07:53:29;;;;;;;0.95;0.85;;;;;;;9.42;59.47;97737.09;5072941;28;20279;-75
2023/12/25 07:55:55;;;;;;;0.85;0.80;;;;;;;9.39;59.44;97751.84;5091058;28;20654;-76
2023/12/25 07:58:22;;;;;;;1.02;0.80;;;;;;;9.46;59.17;97753.72;5071405;28;20206;-75
2023/12/25 08:00:49;;;;;;;0.90;0.80;;;;;;;9.43;59.19;97761.19;5069690;28;20200;-76
2023/12/25 08:03:16;;;;;;;1.38;1.10;;;;;;;9.44;58.95;97760.16;5090579;28;20203;-76
2023/12/25 08:05:42;;;;;;;0.80;0.80;;;;;;;9.17;59.64;97722.44;5072329;28;20204;-76
2023/12/25 08:08:09;;;;;;;1.15;0.95;;;;;;;9.51;58.87;97757.47;5066689;28;20322;-76
2023/12/25 08:10:37;;;;;;;1.13;0.90;;;;;;;9.65;58.70;97761.06;5051685;28;20206;-76
2023/12/25 08:13:04;;;;;;;0.98;0.88;;;;;;;9.54;58.96;97761.66;5086166;28;20253;-76
2023/12/25 08:15:31;;;;;;;1.25;1.10;;;;;;;9.56;59.20;97767.69;5070205;28;20195;-76
2023/12/25 08:17:59;;;;;;;1.25;1.00;;;;;;;9.58;59.14;97749.41;5054450;28;20207;-76
2023/12/25 08:20:25;;;;;;;1.45;1.00;;;;;;;9.53;59.60;97765.38;5072293;28;20649;-76
2023/12/25 08:22:52;;;;;;;1.15;0.88;;;;;;;9.64;59.15;97772.91;5072362;28;20212;-76
2023/12/25 08:25:20;;;;;;;1.15;0.98;;;;;;;9.69;59.30;97776.69;5109334;28;20673;-76
2023/12/25 08:27:49;;;;;;;0.90;0.90;;;;;;;9.83;59.09;97788.34;5073037;28;20228;-76
2023/12/25 08:30:16;;;;;;;1.60;1.00;;;;;;;9.88;59.36;97791.28;5070872;28;20561;-76
2023/12/25 08:32:43;;;;;;;0.80;0.80;;;;;;;9.75;59.53;97791.22;5071717;28;20635;-76
2023/12/25 08:35:10;;;;;;;1.45;0.93;;;;;;;9.71;59.79;97806.22;5055428;28;20214;-77
2023/12/25 08:37:36;;;;;;;1.00;0.90;;;;;;;9.75;59.58;97797.47;5071798;28;20646;-77
2023/12/25 08:40:04;;;;;;;2.05;0.98;;;;;;;9.92;59.16;97807.94;5087835;28;20908;-77
2023/12/25 08:42:31;;;;;;;1.10;1.00;;;;;;;9.89;59.11;97803.75;5071285;28;20310;-77
2023/12/25 08:44:59;;;;;;;1.23;1.13;;;;;;;9.81;59.07;97795.81;5089472;28;20200;-76
2023/12/25 08:47:26;;;;;;;1.65;1.08;;;;;;;9.95;59.10;97805.66;5088699;28;20282;-77
2023/12/25 08:49:53;;;;;;;0.90;0.80;;;;;;;10.07;58.87;97801.28;5072032;28;20258;-76
2023/12/25 08:52:21;;;;;;;0.82;0.80;;;;;;;10.12;58.41;97792.56;5066806;28;20209;-70
2023/12/25 08:54:48;;;;;;;1.10;1.00;;;;;;;10.27;58.54;97805.94;5088414;28;20198;-76
2023/12/25 08:57:14;;;;;;;2.13;1.05;;;;;;;10.60;57.36;97789.75;5054382;28;20191;-78
2023/12/25 08:59:41;;;;;;;0.80;0.80;;;;;;;10.53;57.88;97799.72;5070951;28;20547;-77
2023/12/25 09:02:09;;;;;;;1.80;1.05;;;;;;;10.41;57.97;97810.31;5083187;28;20210;-77
2023/12/25 09:04:36;;;;;;;1.48;0.90;;;;;;;10.32;58.35;97795.34;5088060;28;20574;-78
2023/12/25 09:07:03;;;;;;;0.90;0.80;;;;;;;10.64;57.78;97805.34;5100511;28;20195;-79
2023/12/25 09:09:29;;;;;;;1.30;0.80;;;;;;;10.39;58.36;97796.19;5054734;28;20219;-75
2023/12/25 09:11:56;;;;;;;1.83;0.90;;;;;;;10.16;58.98;97801.94;5072115;28;20212;-76
2023/12/25 09:14:23;;;;;;;1.10;0.90;;;;;;;10.15;59.28;97811.09;5090405;28;20277;-76
2023/12/25 09:16:49;;;;;;;1.10;1.00;;;;;;;10.05;59.79;97814.22;5073555;28;20275;-74
2023/12/25 09:19:17;;;;;;;1.70;1.10;;;;;;;10.02;59.73;97820.03;5072981;28;20198;-76
2023/12/25 09:21:44;;;;;;;1.00;0.90;;;;;;;10.05;59.65;97830.44;5083253;28;20246;-70
2023/12/25 09:24:10;;;;;;;1.00;0.90;;;;;;;9.97;60.10;97822.50;5071251;28;20202;-74
2023/12/25 09:26:37;;;;;;;1.75;0.90;;;;;;;10.14;59.69;97832.94;5081659;28;20246;-74
2023/12/25 09:29:03;;;;;;;1.15;0.75;;;;;;;10.04;60.10;97845.00;5092453;28;20231;-73
2023/12/25 09:31:30;;;;;;;1.30;1.05;;;;;;;10.33;59.67;97834.88;5108529;28;20285;-74
2023/12/25 09:33:57;;;;;;;1.98;0.90;;;;;;;10.60;59.04;97844.69;5074429;28;20287;-75
2023/12/25 09:36:26;;;;;;;0.80;0.80;;;;;;;10.89;58.48;97842.63;5047448;28;20211;-74
2023/12/25 09:38:53;;;;;;;1.00;0.90;;;;;;;11.30;57.21;97843.19;5072513;28;20290;-74
2023/12/25 09:41:20;;;;;;;1.00;0.90;;;;;;;12.05;55.15;97844.41;5055349;28;20286;-74
2023/12/25 09:43:47;;;;;;;0.90;0.80;;;;;;;12.42;54.09;97834.59;5054039;28;20200;-74
2023/12/25 09:46:15;;;;;;;0.97;0.87;;;;;;;12.49;53.36;97831.84;5071129;28;20644;-74
2023/12/25 09:48:41;;;;;;;1.47;0.70;;;;;;;12.27;54.27;97833.25;5061990;28;20754;-74
2023/12/25 09:51:10;;;;;;;0.90;0.90;;;;;;;11.86;55.61;97839.91;5072341;28;20622;-74
2023/12/25 09:53:37;;;;;;;0.90;0.80;;;;;;;12.05;55.79;97832.72;5070691;28;20636;-74
2023/12/25 09:56:07;;;;;;;1.93;0.80;;;;;;;12.14;55.05;97830.59;5055362;28;20710;-74
2023/12/25 09:58:35;;;;;;;1.00;0.80;;;;;;;12.31;55.20;97821.75;5095191;28;20626;-77
2023/12/25 10:01:02;;;;;;;1.10;0.97;;;;;;;12.46;55.57;97824.13;5084291;28;20283;-77
2023/12/25 10:03:29;;;;;;;0.80;0.70;;;;;;;12.62;54.82;97804.59;5076210;28;20654;-78
2023/12/25 10:05:55;;;;;;;0.90;0.60;;;;;;;13.12;53.57;97823.59;5102182;28;20712;-75
2023/12/25 10:08:22;;;;;;;1.00;0.90;;;;;;;12.60;55.27;97809.41;5077745;28;20688;-74
2023/12/25 10:10:54;;;;;;;0.90;0.70;;;;;;;12.18;56.77;97810.13;5084493;28;21210;-74
2023/12/25 10:13:21;;;;;;;0.80;0.70;;;;;;;12.02;57.30;97809.56;5089469;28;20627;-78
2023/12/25 10:15:48;;;;;;;2.17;0.75;;;;;;;12.28;57.19;97795.03;5068252;28;20642;-75
2023/12/25 10:18:15;;;;;;;1.37;0.80;;;;;;;12.53;56.25;97786.91;5071429;28;20192;-75
2023/12/25 10:20:42;;;;;;;1.20;0.70;;;;;;;12.27;56.82;97798.81;5071381;28;21259;-75
2023/12/25 10:23:12;;;;;;;1.43;0.70;;;;;;;12.36;57.22;97791.19;5086379;28;20655;-76
2023/12/25 10:25:44;;;;;;;1.00;0.90;;;;;;;12.60;56.54;97784.97;5064537;28;20638;-75
2023/12/25 10:28:13;;;;;;;0.80;0.80;;;;;;;12.52;56.40;97787.97;5080472;28;20649;-76
2023/12/25 10:30:43;;;;;;;1.27;0.90;;;;;;;13.13;55.52;97788.03;5075906;28;20890;-76
2023/12/25 10:33:14;;;;;;;0.80;0.70;;;;;;;13.11;54.64;97776.56;5077547;28;20644;-76
2023/12/25 10:35:42;;;;;;;1.23;0.70;;;;;;;12.32;57.33;97803.56;5110301;28;22157;-75
2023/12/25 10:38:09;;;;;;;0.80;0.73;;;;;;;11.83;59.29;97796.97;5073805;28;20621;-75
2023/12/25 10:40:38;;;;;;;1.37;0.60;;;;;;;11.74;59.97;97795.50;5092351;28;20633;-75
2023/12/25 10:43:04;;;;;;;1.55;0.60;;;;;;;11.50;60.80;97785.38;5098620;28;20717;-75
2023/12/25 10:45:32;;;;;;;0.73;0.60;;;;;;;11.36;62.33;97790.88;5093845;28;20679;-77
2023/12/25 10:48:02;;;;;;;0.63;0.50;;;;;;;11.33;62.42;97785.88;5093556;28;20232;-75
2023/12/25 10:50:31;;;;;;;1.15;0.68;;;;;;;11.25;62.59;97786.09;5077418;28;20274;-76
2023/12/25 10:53:00;;;;;;;0.80;0.60;;;;;;;11.54;62.42;97775.78;5094713;28;20207;-77
2023/12/25 10:55:33;;;;;;;0.90;0.70;;;;;;;11.50;62.52;97785.38;5073942;28;20210;-75
2023/12/25 10:57:59;;;;;;;1.00;0.70;;;;;;;11.26;62.92;97782.34;5072988;28;20203;-75
2023/12/25 11:00:30;;;;;;;0.70;0.60;;;;;;;11.10;63.39;97786.34;5107594;27;20196;-76
2023/12/25 11:02:58;;;;;;;0.80;0.60;;;;;;;11.20;63.66;97783.19;5073802;28;20213;-75
2023/12/25 11:05:25;;;;;;;1.35;0.80;;;;;;;11.10;64.12;97785.50;5057912;28;20676;-75
2023/12/25 11:07:57;;;;;;;0.60;0.60;;;;;;;11.15;64.05;97791.13;5089500;28;20654;-75
2023/12/25 11:10:24;;;;;;;0.80;0.70;;;;;;;11.11;64.00;97787.16;5091355;28;20261;-74
2023/12/25 11:12:52;;;;;;;1.00;0.60;;;;;;;11.30;63.80;97799.03;5072958;28;20210;-75
2023/12/25 11:15:18;;;;;;;0.80;0.70;;;;;;;11.13;64.23;97790.50;5074092;28;21061;-75
2023/12/25 11:17:45;;;;;;;0.70;0.60;;;;;;;10.97;64.55;97799.91;5073965;28;20275;-75
2023/12/25 11:20:13;;;;;;;0.80;0.60;;;;;;;10.95;64.81;97806.59;5071284;28;20196;-75
2023/12/25 11:22:44;;;;;;;0.80;0.80;;;;;;;10.96;64.73;97797.41;5107879;28;20649;-75
2023/12/25 11:25:13;;;;;;;0.70;0.60;;;;;;;10.75;65.20;97804.72;5106664;28;20195;-74
2023/12/25 11:27:42;;;;;;;0.73;0.60;;;;;;;10.97;64.97;97809.91;5108049;28;20295;-76
2023/12/25 11:30:10;;;;;;;0.60;0.57;;;;;;;11.00;64.99;97812.22;5075001;28;20224;-75
2023/12/25 11:32:37;;;;;;;0.60;0.57;;;;;;;11.01;64.48;97813.88;5074728;28;20561;-76
2023/12/25 11:35:04;;;;;;;0.70;0.60;;;;;;;11.08;64.40;97809.25;5076332;28;20290;-76
2023/12/25 11:37:32;;;;;;;0.75;0.70;;;;;;;11.11;64.39;97814.25;5076139;28;20238;-76